sensor_id;sensor_type;location;lat;lon;timestamp;pressure;altitude;pressure_sealevel;temperature;humidity
18858;BME280;9558;50.178;8.370;2023-08-06T00:01:47;97346.19;;;15.42;100.00
18858;BME280;9558;50.178;8.370;2023-08-06T00:04:35;97358.22;;;15.43;100.00
18858;BME280;9558;50.178;8.370;2023-08-06T00:07:22;97354.13;;;15.47;100.00
18858;BME280;9558;50.178;8.370;2023-08-06T00:10:09;97345.63;;;15.51;100.00
18858;BME280;9558;50.178;8.370;2023-08-06T00:12:56;97346.09;;;15.48;100.00
18858;BME280;9558;50.178;8.370;2023-08-06T00:15:42;97339.16;;;15.54;100.00
18858;BME280;9558;50.178;8.370;2023-08-06T00:18:29;97347.78;;;15.54;100.00
18858;BME280;9558;50.178;8.370;2023-08-06T00:21:17;97345.31;;;15.48;100.00
18858;BME280;9558;50.178;8.370;2023-08-06T00:24:04;97333.94;;;15.54;100.00
18858;BME280;9558;50.178;8.370;2023-08-06T00:26:51;97327.25;;;15.58;100.00
18858;BME280;9558;50.178;8.370;2023-08-06T00:29:38;97323.66;;;15.59;100.00
18858;BME280;9558;50.178;8.370;2023-08-06T00:32:24;97323.06;;;15.57;100.00
18858;BME280;9558;50.178;8.370;2023-08-06T00:35:11;97324.19;;;15.61;100.00
18858;BME280;9558;50.178;8.370;2023-08-06T00:38:00;97318.97;;;15.61;100.00
18858;BME280;9558;50.178;8.370;2023-08-06T00:40:47;97316.59;;;15.60;100.00
18858;BME280;9558;50.178;8.370;2023-08-06T00:43:34;97317.97;;;15.62;100.00
18858;BME280;9558;50.178;8.370;2023-08-06T00:46:20;97309.34;;;15.62;100.00
18858;BME280;9558;50.178;8.370;2023-08-06T00:49:07;97308.56;;;15.61;100.00
18858;BME280;9558;50.178;8.370;2023-08-06T00:51:54;97298.59;;;15.58;100.00
18858;BME280;9558;50.178;8.370;2023-08-06T00:54:43;97300.41;;;15.58;100.00
18858;BME280;9558;50.178;8.370;2023-08-06T00:57:30;97295.75;;;15.60;100.00
18858;BME280;9558;50.178;8.370;2023-08-06T01:00:16;97292.47;;;15.52;100.00
18858;BME280;9558;50.178;8.370;2023-08-06T01:03:03;97287.03;;;15.54;100.00
18858;BME280;9558;50.178;8.370;2023-08-06T01:05:50;97281.81;;;15.54;100.00
18858;BME280;9558;50.178;8.370;2023-08-06T01:08:48;97280.22;;;15.53;100.00
18858;BME280;9558;50.178;8.370;2023-08-06T01:11:48;97273.75;;;15.55;100.00
18858;BME280;9558;50.178;8.370;2023-08-06T01:14:47;97277.72;;;15.58;100.00
18858;BME280;9558;50.178;8.370;2023-08-06T01:17:35;97276.94;;;15.58;100.00
18858;BME280;9558;50.178;8.370;2023-08-06T01:20:28;97270.44;;;15.60;100.00
18858;BME280;9558;50.178;8.370;2023-08-06T01:23:15;97265.81;;;15.62;100.00
18858;BME280;9558;50.178;8.370;2023-08-06T01:26:10;97268.41;;;15.62;100.00
18858;BME280;9558;50.178;8.370;2023-08-06T01:29:06;97264.22;;;15.61;100.00
18858;BME280;9558;50.178;8.370;2023-08-06T01:31:56;97254.13;;;15.65;100.00
18858;BME280;9558;50.178;8.370;2023-08-06T01:34:44;97243.47;;;15.66;100.00
18858;BME280;9558;50.178;8.370;2023-08-06T01:37:34;97238.25;;;15.66;100.00
18858;BME280;9558;50.178;8.370;2023-08-06T01:40:21;97234.59;;;15.67;100.00
18858;BME280;9558;50.178;8.370;2023-08-06T01:43:07;97233.03;;;15.66;100.00
18858;BME280;9558;50.178;8.370;2023-08-06T01:45:54;97236.66;;;15.65;100.00
18858;BME280;9558;50.178;8.370;2023-08-06T01:48:41;97239.50;;;15.64;100.00
18858;BME280;9558;50.178;8.370;2023-08-06T01:51:27;97238.72;;;15.63;100.00
18858;BME280;9558;50.178;8.370;2023-08-06T01:54:16;97236.53;;;15.60;100.00
18858;BME280;9558;50.178;8.370;2023-08-06T01:57:03;97239.63;;;15.57;100.00
18858;BME280;9558;50.178;8.370;2023-08-06T01:59:49;97235.88;;;15.53;100.00
18858;BME280;9558;50.178;8.370;2023-08-06T02:02:36;97238.16;;;15.49;100.00
18858;BME280;9558;50.178;8.370;2023-08-06T02:05:23;97238.47;;;15.53;100.00
18858;BME280;9558;50.178;8.370;2023-08-06T02:08:10;97242.44;;;15.55;100.00
18858;BME280;9558;50.178;8.370;2023-08-06T02:10:58;97232.13;;;15.49;100.00
18858;BME280;9558;50.178;8.370;2023-08-06T02:13:45;97235.31;;;15.51;100.00
18858;BME280;9558;50.178;8.370;2023-08-06T02:16:32;97240.44;;;15.46;100.00
18858;BME280;9558;50.178;8.370;2023-08-06T02:19:19;97241.13;;;15.41;100.00
18858;BME280;9558;50.178;8.370;2023-08-06T02:22:06;97232.84;;;15.44;100.00
18858;BME280;9558;50.178;8.370;2023-08-06T02:24:52;97224.22;;;15.44;100.00
18858;BME280;9558;50.178;8.370;2023-08-06T02:27:40;97226.25;;;15.42;100.00
18858;BME280;9558;50.178;8.370;2023-08-06T02:30:28;97221.63;;;15.44;100.00
18858;BME280;9558;50.178;8.370;2023-08-06T02:33:14;97217.44;;;15.43;100.00
18858;BME280;9558;50.178;8.370;2023-08-06T02:36:02;97212.22;;;15.43;100.00
18858;BME280;9558;50.178;8.370;2023-08-06T02:38:50;97192.94;;;15.44;100.00
18858;BME280;9558;50.178;8.370;2023-08-06T02:41:37;97191.94;;;15.45;100.00
18858;BME280;9558;50.178;8.370;2023-08-06T02:44:26;97194.53;;;15.45;100.00
18858;BME280;9558;50.178;8.370;2023-08-06T02:47:13;97192.13;;;15.43;100.00
18858;BME280;9558;50.178;8.370;2023-08-06T02:50:00;97194.44;;;15.40;100.00
18858;BME280;9558;50.178;8.370;2023-08-06T02:52:47;97190.00;;;15.40;100.00
18858;BME280;9558;50.178;8.370;2023-08-06T02:55:34;97176.19;;;15.40;100.00
18858;BME280;9558;50.178;8.370;2023-08-06T02:58:21;97172.56;;;15.41;100.00
18858;BME280;9558;50.178;8.370;2023-08-06T03:01:09;97178.66;;;15.34;100.00
18858;BME280;9558;50.178;8.370;2023-08-06T03:03:56;97171.44;;;15.36;100.00
18858;BME280;9558;50.178;8.370;2023-08-06T03:06:43;97176.06;;;15.34;100.00
18858;BME280;9558;50.178;8.370;2023-08-06T03:09:29;97160.66;;;15.33;100.00
18858;BME280;9558;50.178;8.370;2023-08-06T03:12:16;97167.47;;;15.34;100.00
18858;BME280;9558;50.178;8.370;2023-08-06T03:15:04;97158.84;;;15.33;100.00
18858;BME280;9558;50.178;8.370;2023-08-06T03:17:55;97147.06;;;15.31;100.00
18858;BME280;9558;50.178;8.370;2023-08-06T03:20:42;97153.66;;;15.33;100.00
18858;BME280;9558;50.178;8.370;2023-08-06T03:23:29;97159.88;;;15.32;100.00
18858;BME280;9558;50.178;8.370;2023-08-06T03:26:15;97159.88;;;15.32;100.00
18858;BME280;9558;50.178;8.370;2023-08-06T03:29:02;97146.84;;;15.32;100.00
18858;BME280;9558;50.178;8.370;2023-08-06T03:31:49;97155.91;;;15.30;100.00
18858;BME280;9558;50.178;8.370;2023-08-06T03:34:37;97159.88;;;15.32;100.00
18858;BME280;9558;50.178;8.370;2023-08-06T03:37:24;97148.66;;;15.32;100.00
18858;BME280;9558;50.178;8.370;2023-08-06T03:40:11;97148.31;;;15.28;100.00
18858;BME280;9558;50.178;8.370;2023-08-06T03:42:57;97144.69;;;15.29;100.00
18858;BME280;9558;50.178;8.370;2023-08-06T03:45:44;97143.09;;;15.28;100.00
18858;BME280;9558;50.178;8.370;2023-08-06T03:48:31;97143.00;;;15.23;100.00
18858;BME280;9558;50.178;8.370;2023-08-06T03:51:19;97135.53;;;15.27;100.00
18858;BME280;9558;50.178;8.370;2023-08-06T03:54:06;97134.16;;;15.24;100.00
18858;BME280;9558;50.178;8.370;2023-08-06T03:56:52;97133.03;;;15.20;100.00
18858;BME280;9558;50.178;8.370;2023-08-06T03:59:39;97137.22;;;15.21;100.00
18858;BME280;9558;50.178;8.370;2023-08-06T04:02:26;97135.19;;;15.23;100.00
18858;BME280;9558;50.178;8.370;2023-08-06T04:05:13;97128.41;;;15.22;100.00
18858;BME280;9558;50.178;8.370;2023-08-06T04:08:01;97141.19;;;15.24;100.00
18858;BME280;9558;50.178;8.370;2023-08-06T04:10:49;97130.78;;;15.24;100.00
18858;BME280;9558;50.178;8.370;2023-08-06T04:13:36;97127.47;;;15.28;100.00
18858;BME280;9558;50.178;8.370;2023-08-06T04:16:22;97127.47;;;15.28;100.00
18858;BME280;9558;50.178;8.370;2023-08-06T04:19:09;97118.63;;;15.29;100.00
18858;BME280;9558;50.178;8.370;2023-08-06T04:21:56;97122.81;;;15.30;100.00
18858;BME280;9558;50.178;8.370;2023-08-06T04:24:44;97123.03;;;15.29;100.00
18858;BME280;9558;50.178;8.370;2023-08-06T04:27:31;97116.25;;;15.28;100.00
18858;BME280;9558;50.178;8.370;2023-08-06T04:30:18;97117.03;;;15.28;100.00
18858;BME280;9558;50.178;8.370;2023-08-06T04:33:05;97124.31;;;15.26;100.00
18858;BME280;9558;50.178;8.370;2023-08-06T04:35:54;97122.72;;;15.25;100.00
18858;BME280;9558;50.178;8.370;2023-08-06T04:38:41;97121.13;;;15.24;100.00
18858;BME280;9558;50.178;8.370;2023-08-06T04:41:31;97121.72;;;15.14;100.00
18858;BME280;9558;50.178;8.370;2023-08-06T04:44:18;97123.53;;;15.14;100.00
18858;BME280;9558;50.178;8.370;2023-08-06T04:47:05;97119.69;;;15.04;100.00
18858;BME280;9558;50.178;8.370;2023-08-06T04:49:52;97121.31;;;14.94;100.00
18858;BME280;9558;50.178;8.370;2023-08-06T04:52:39;97132.06;;;14.85;100.00
18858;BME280;9558;50.178;8.370;2023-08-06T04:55:25;97127.19;;;14.77;100.00
18858;BME280;9558;50.178;8.370;2023-08-06T04:58:13;97124.16;;;14.68;100.00
18858;BME280;9558;50.178;8.370;2023-08-06T05:01:00;97128.34;;;14.69;100.00
18858;BME280;9558;50.178;8.370;2023-08-06T05:03:47;97130.28;;;14.62;100.00
18858;BME280;9558;50.178;8.370;2023-08-06T05:06:34;97128.09;;;14.59;100.00
18858;BME280;9558;50.178;8.370;2023-08-06T05:09:23;97123.91;;;14.58;100.00
18858;BME280;9558;50.178;8.370;2023-08-06T05:12:10;97126.28;;;14.60;100.00
18858;BME280;9558;50.178;8.370;2023-08-06T05:14:58;97120.06;;;14.61;100.00
18858;BME280;9558;50.178;8.370;2023-08-06T05:17:45;97128.34;;;14.58;100.00
18858;BME280;9558;50.178;8.370;2023-08-06T05:20:36;97125.06;;;14.62;100.00
18858;BME280;9558;50.178;8.370;2023-08-06T05:23:23;97122.47;;;14.62;100.00
18858;BME280;9558;50.178;8.370;2023-08-06T05:26:09;97125.19;;;14.67;100.00
18858;BME280;9558;50.178;8.370;2023-08-06T05:28:56;97124.97;;;14.69;100.00
18858;BME280;9558;50.178;8.370;2023-08-06T05:31:44;97125.75;;;14.69;100.00
18858;BME280;9558;50.178;8.370;2023-08-06T05:34:31;97125.75;;;14.69;100.00
18858;BME280;9558;50.178;8.370;2023-08-06T05:37:18;97118.94;;;14.68;100.00
18858;BME280;9558;50.178;8.370;2023-08-06T05:40:05;97118.72;;;14.70;100.00
18858;BME280;9558;50.178;8.370;2023-08-06T05:42:53;97116.94;;;14.71;100.00
18858;BME280;9558;50.178;8.370;2023-08-06T05:45:44;97120.53;;;14.69;100.00
18858;BME280;9558;50.178;8.370;2023-08-06T05:48:32;97120.78;;;14.68;100.00
18858;BME280;9558;50.178;8.370;2023-08-06T05:51:19;97121.31;;;14.70;100.00
18858;BME280;9558;50.178;8.370;2023-08-06T05:54:06;97126.88;;;14.74;100.00
18858;BME280;9558;50.178;8.370;2023-08-06T05:56:52;97124.72;;;14.71;100.00
18858;BME280;9558;50.178;8.370;2023-08-06T05:59:40;97122.91;;;14.71;100.00
18858;BME280;9558;50.178;8.370;2023-08-06T06:02:27;97124.16;;;14.68;100.00
18858;BME280;9558;50.178;8.370;2023-08-06T06:05:15;97116.81;;;14.65;100.00
18858;BME280;9558;50.178;8.370;2023-08-06T06:08:02;97121.84;;;14.60;100.00
18858;BME280;9558;50.178;8.370;2023-08-06T06:10:49;97128.22;;;14.64;100.00
18858;BME280;9558;50.178;8.370;2023-08-06T06:13:36;97128.66;;;14.61;100.00
18858;BME280;9558;50.178;8.370;2023-08-06T06:16:23;97130.72;;;14.59;100.00
18858;BME280;9558;50.178;8.370;2023-08-06T06:19:10;97127.88;;;14.61;100.00
18858;BME280;9558;50.178;8.370;2023-08-06T06:21:58;97129.03;;;14.65;100.00
18858;BME280;9558;50.178;8.370;2023-08-06T06:24:44;97132.19;;;14.67;100.00
18858;BME280;9558;50.178;8.370;2023-08-06T06:27:31;97124.28;;;14.62;100.00
18858;BME280;9558;50.178;8.370;2023-08-06T06:30:18;97133.31;;;14.59;100.00
18858;BME280;9558;50.178;8.370;2023-08-06T06:33:05;97132.72;;;14.57;100.00
18858;BME280;9558;50.178;8.370;2023-08-06T06:35:51;97137.84;;;14.52;100.00
18858;BME280;9558;50.178;8.370;2023-08-06T06:38:40;97134.19;;;14.53;100.00
18858;BME280;9558;50.178;8.370;2023-08-06T06:41:26;97136.00;;;14.52;100.00
18858;BME280;9558;50.178;8.370;2023-08-06T06:44:15;97132.50;;;14.47;100.00
18858;BME280;9558;50.178;8.370;2023-08-06T06:47:02;97127.28;;;14.47;100.00
18858;BME280;9558;50.178;8.370;2023-08-06T06:49:49;97130.47;;;14.49;100.00
18858;BME280;9558;50.178;8.370;2023-08-06T06:52:36;97128.88;;;14.48;100.00
18858;BME280;9558;50.178;8.370;2023-08-06T06:55:25;97135.69;;;14.49;100.00
18858;BME280;9558;50.178;8.370;2023-08-06T06:58:11;97128.44;;;14.51;100.00
18858;BME280;9558;50.178;8.370;2023-08-06T07:00:58;97138.38;;;14.54;100.00
18858;BME280;9558;50.178;8.370;2023-08-06T07:03:45;97122.78;;;14.54;100.00
18858;BME280;9558;50.178;8.370;2023-08-06T07:06:32;97133.88;;;14.61;100.00
18858;BME280;9558;50.178;8.370;2023-08-06T07:09:18;97131.88;;;14.63;100.00
18858;BME280;9558;50.178;8.370;2023-08-06T07:12:07;97131.97;;;14.68;100.00
18858;BME280;9558;50.178;8.370;2023-08-06T07:14:54;97135.72;;;14.73;100.00
18858;BME280;9558;50.178;8.370;2023-08-06T07:17:41;97134.78;;;14.79;100.00
18858;BME280;9558;50.178;8.370;2023-08-06T07:20:28;97132.88;;;14.74;100.00
18858;BME280;9558;50.178;8.370;2023-08-06T07:23:17;97136.50;;;14.73;100.00
18858;BME280;9558;50.178;8.370;2023-08-06T07:26:04;97136.59;;;14.78;100.00
18858;BME280;9558;50.178;8.370;2023-08-06T07:28:52;97141.59;;;14.80;100.00
18858;BME280;9558;50.178;8.370;2023-08-06T07:31:39;97140.66;;;14.86;100.00
18858;BME280;9558;50.178;8.370;2023-08-06T07:34:27;97148.06;;;14.89;100.00
18858;BME280;9558;50.178;8.370;2023-08-06T07:37:13;97142.94;;;14.94;100.00
18858;BME280;9558;50.178;8.370;2023-08-06T07:40:00;97151.34;;;14.96;100.00
18858;BME280;9558;50.178;8.370;2023-08-06T07:42:47;97148.03;;;15.01;100.00
18858;BME280;9558;50.178;8.370;2023-08-06T07:45:35;97152.47;;;15.00;100.00
18858;BME280;9558;50.178;8.370;2023-08-06T07:48:22;97152.47;;;15.00;100.00
18858;BME280;9558;50.178;8.370;2023-08-06T07:51:09;97153.00;;;15.02;100.00
18858;BME280;9558;50.178;8.370;2023-08-06T07:53:56;97146.31;;;15.07;100.00
18858;BME280;9558;50.178;8.370;2023-08-06T07:56:43;97153.69;;;15.10;100.00
18858;BME280;9558;50.178;8.370;2023-08-06T07:59:30;97150.63;;;15.13;100.00
18858;BME280;9558;50.178;8.370;2023-08-06T08:02:18;97144.38;;;15.14;100.00
18858;BME280;9558;50.178;8.370;2023-08-06T08:05:05;97141.91;;;15.19;100.00
18858;BME280;9558;50.178;8.370;2023-08-06T08:07:55;97137.22;;;15.21;100.00
18858;BME280;9558;50.178;8.370;2023-08-06T08:10:42;97135.84;;;15.30;100.00
18858;BME280;9558;50.178;8.370;2023-08-06T08:13:29;97140.81;;;15.44;100.00
18858;BME280;9558;50.178;8.370;2023-08-06T08:16:15;97137.84;;;15.52;100.00
18858;BME280;9558;50.178;8.370;2023-08-06T08:19:04;97147.66;;;15.62;100.00
18858;BME280;9558;50.178;8.370;2023-08-06T08:21:51;97132.28;;;15.77;100.00
18858;BME280;9558;50.178;8.370;2023-08-06T08:24:42;97138.44;;;16.00;100.00
18858;BME280;9558;50.178;8.370;2023-08-06T08:27:32;97128.66;;;16.24;100.00
18858;BME280;9558;50.178;8.370;2023-08-06T08:30:19;97132.59;;;16.61;100.00
18858;BME280;9558;50.178;8.370;2023-08-06T08:33:06;97132.38;;;17.01;100.00
18858;BME280;9558;50.178;8.370;2023-08-06T08:35:54;97132.63;;;17.66;100.00
18858;BME280;9558;50.178;8.370;2023-08-06T08:38:41;97133.91;;;17.91;100.00
18858;BME280;9558;50.178;8.370;2023-08-06T08:41:29;97133.75;;;18.35;100.00
18858;BME280;9558;50.178;8.370;2023-08-06T08:44:17;97130.84;;;18.69;100.00
18858;BME280;9558;50.178;8.370;2023-08-06T08:47:04;97130.06;;;19.16;100.00
18858;BME280;9558;50.178;8.370;2023-08-06T08:49:54;97130.66;;;19.34;100.00
18858;BME280;9558;50.178;8.370;2023-08-06T08:52:43;97127.06;;;19.61;100.00
18858;BME280;9558;50.178;8.370;2023-08-06T08:55:31;97116.66;;;20.28;100.00
18858;BME280;9558;50.178;8.370;2023-08-06T08:58:18;97133.41;;;20.78;100.00
18858;BME280;9558;50.178;8.370;2023-08-06T09:01:06;97127.97;;;21.30;98.88
18858;BME280;9558;50.178;8.370;2023-08-06T09:03:54;97124.63;;;21.69;96.41
18858;BME280;9558;50.178;8.370;2023-08-06T09:06:43;97122.53;;;21.71;95.56
18858;BME280;9558;50.178;8.370;2023-08-06T09:09:34;97123.78;;;21.79;94.69
18858;BME280;9558;50.178;8.370;2023-08-06T09:12:23;97122.19;;;21.78;94.03
18858;BME280;9558;50.178;8.370;2023-08-06T09:15:10;97117.22;;;21.76;91.25
18858;BME280;9558;50.178;8.370;2023-08-06T09:17:57;97120.19;;;21.59;90.31
18858;BME280;9558;50.178;8.370;2023-08-06T09:20:44;97122.16;;;21.33;90.83
18858;BME280;9558;50.178;8.370;2023-08-06T09:23:31;97125.47;;;20.94;91.35
18858;BME280;9558;50.178;8.370;2023-08-06T09:26:20;97126.06;;;20.60;92.88
18858;BME280;9558;50.178;8.370;2023-08-06T09:29:08;97128.19;;;20.37;95.20
18858;BME280;9558;50.178;8.370;2023-08-06T09:31:56;97120.03;;;20.13;96.20
18858;BME280;9558;50.178;8.370;2023-08-06T09:34:43;97128.69;;;19.93;97.10
18858;BME280;9558;50.178;8.370;2023-08-06T09:37:35;97124.97;;;19.73;98.74
18858;BME280;9558;50.178;8.370;2023-08-06T09:40:26;97123.88;;;19.59;99.68
18858;BME280;9558;50.178;8.370;2023-08-06T09:43:15;97120.97;;;19.50;100.00
18858;BME280;9558;50.178;8.370;2023-08-06T09:46:10;97117.00;;;19.37;100.00
18858;BME280;9558;50.178;8.370;2023-08-06T09:48:58;97127.47;;;19.27;100.00
18858;BME280;9558;50.178;8.370;2023-08-06T09:51:46;97134.75;;;19.14;100.00
18858;BME280;9558;50.178;8.370;2023-08-06T09:54:37;97136.81;;;19.02;100.00
18858;BME280;9558;50.178;8.370;2023-08-06T09:57:24;97133.09;;;18.88;100.00
18858;BME280;9558;50.178;8.370;2023-08-06T10:00:13;97141.84;;;18.71;100.00
18858;BME280;9558;50.178;8.370;2023-08-06T10:03:03;97130.25;;;18.57;100.00
18858;BME280;9558;50.178;8.370;2023-08-06T10:05:51;97127.81;;;18.50;100.00
18858;BME280;9558;50.178;8.370;2023-08-06T10:08:38;97136.25;;;18.57;100.00
18858;BME280;9558;50.178;8.370;2023-08-06T10:11:27;97131.69;;;18.80;100.00
18858;BME280;9558;50.178;8.370;2023-08-06T10:14:19;97130.00;;;19.01;100.00
18858;BME280;9558;50.178;8.370;2023-08-06T10:17:08;97125.06;;;19.20;100.00
18858;BME280;9558;50.178;8.370;2023-08-06T10:19:55;97133.59;;;19.48;100.00
18858;BME280;9558;50.178;8.370;2023-08-06T10:22:43;97125.22;;;19.66;100.00
18858;BME280;9558;50.178;8.370;2023-08-06T10:25:31;97132.38;;;19.87;100.00
18858;BME280;9558;50.178;8.370;2023-08-06T10:28:19;97127.41;;;20.06;100.00
18858;BME280;9558;50.178;8.370;2023-08-06T10:31:06;97141.31;;;20.06;100.00
18858;BME280;9558;50.178;8.370;2023-08-06T10:33:54;97130.28;;;20.04;100.00
18858;BME280;9558;50.178;8.370;2023-08-06T10:36:41;97125.56;;;20.11;100.00
18858;BME280;9558;50.178;8.370;2023-08-06T10:39:28;97127.66;;;20.19;100.00
18858;BME280;9558;50.178;8.370;2023-08-06T10:42:20;97127.13;;;20.33;100.00
18858;BME280;9558;50.178;8.370;2023-08-06T10:45:16;97124.00;;;20.31;92.99
18858;BME280;9558;50.178;8.370;2023-08-06T10:48:04;97115.31;;;20.35;99.50
18858;BME280;9558;50.178;8.370;2023-08-06T10:50:52;97117.66;;;20.37;98.57
18858;BME280;9558;50.178;8.370;2023-08-06T10:53:42;97124.50;;;20.38;99.91
18858;BME280;9558;50.178;8.370;2023-08-06T10:56:29;97122.69;;;20.33;99.77
18858;BME280;9558;50.178;8.370;2023-08-06T10:59:16;97130.81;;;20.16;98.28
18858;BME280;9558;50.178;8.370;2023-08-06T11:02:03;97126.63;;;19.95;97.08
18858;BME280;9558;50.178;8.370;2023-08-06T11:04:50;97121.28;;;19.74;98.48
18858;BME280;9558;50.178;8.370;2023-08-06T11:07:38;97123.38;;;19.67;99.16
18858;BME280;9558;50.178;8.370;2023-08-06T11:10:25;97120.72;;;19.51;100.00
18858;BME280;9558;50.178;8.370;2023-08-06T11:13:16;97135.41;;;19.42;100.00
18858;BME280;9558;50.178;8.370;2023-08-06T11:16:03;97135.59;;;19.25;100.00
18858;BME280;9558;50.178;8.370;2023-08-06T11:18:50;97155.69;;;19.04;100.00
18858;BME280;9558;50.178;8.370;2023-08-06T11:21:39;97202.19;;;18.76;100.00
18858;BME280;9558;50.178;8.370;2023-08-06T11:24:27;97187.94;;;18.02;100.00
18858;BME280;9558;50.178;8.370;2023-08-06T11:27:16;97192.78;;;17.44;100.00
18858;BME280;9558;50.178;8.370;2023-08-06T11:30:04;97199.72;;;16.94;100.00
18858;BME280;9558;50.178;8.370;2023-08-06T11:32:51;97219.19;;;16.52;100.00
18858;BME280;9558;50.178;8.370;2023-08-06T11:35:38;97219.47;;;16.22;100.00
18858;BME280;9558;50.178;8.370;2023-08-06T11:38:25;97199.16;;;15.95;100.00
18858;BME280;9558;50.178;8.370;2023-08-06T11:41:14;97214.31;;;15.69;100.00
18858;BME280;9558;50.178;8.370;2023-08-06T11:44:01;97211.63;;;15.52;100.00
18858;BME280;9558;50.178;8.370;2023-08-06T11:46:52;97215.84;;;15.42;100.00
18858;BME280;9558;50.178;8.370;2023-08-06T11:49:41;97222.44;;;15.32;100.00
18858;BME280;9558;50.178;8.370;2023-08-06T11:52:30;97209.28;;;15.27;100.00
18858;BME280;9558;50.178;8.370;2023-08-06T11:55:16;97227.44;;;15.22;100.00
18858;BME280;9558;50.178;8.370;2023-08-06T11:58:05;97241.47;;;15.21;100.00
18858;BME280;9558;50.178;8.370;2023-08-06T12:00:52;97229.22;;;15.21;100.00
18858;BME280;9558;50.178;8.370;2023-08-06T12:03:39;97248.16;;;15.17;100.00
18858;BME280;9558;50.178;8.370;2023-08-06T12:06:27;97243.97;;;15.16;100.00
18858;BME280;9558;50.178;8.370;2023-08-06T12:09:13;97245.78;;;15.15;100.00
18858;BME280;9558;50.178;8.370;2023-08-06T12:12:00;97262.78;;;15.18;100.00
18858;BME280;9558;50.178;8.370;2023-08-06T12:14:48;97257.13;;;15.21;100.00
18858;BME280;9558;50.178;8.370;2023-08-06T12:17:36;97255.88;;;15.24;100.00
18858;BME280;9558;50.178;8.370;2023-08-06T12:20:23;97260.63;;;15.27;100.00
18858;BME280;9558;50.178;8.370;2023-08-06T12:23:10;97265.50;;;15.35;100.00
18858;BME280;9558;50.178;8.370;2023-08-06T12:26:00;97270.03;;;15.40;100.00
18858;BME280;9558;50.178;8.370;2023-08-06T12:28:47;97274.09;;;15.47;100.00
18858;BME280;9558;50.178;8.370;2023-08-06T12:31:36;97275.56;;;15.55;100.00
18858;BME280;9558;50.178;8.370;2023-08-06T12:34:23;97286.75;;;15.67;100.00
18858;BME280;9558;50.178;8.370;2023-08-06T12:37:10;97288.59;;;15.79;100.00
18858;BME280;9558;50.178;8.370;2023-08-06T12:39:57;97290.84;;;15.87;100.00
18858;BME280;9558;50.178;8.370;2023-08-06T12:42:43;97295.59;;;15.90;100.00
18858;BME280;9558;50.178;8.370;2023-08-06T12:45:30;97302.75;;;15.83;100.00
18858;BME280;9558;50.178;8.370;2023-08-06T12:48:18;97291.84;;;15.86;100.00
18858;BME280;9558;50.178;8.370;2023-08-06T12:51:05;97308.88;;;15.88;100.00
18858;BME280;9558;50.178;8.370;2023-08-06T12:53:52;97317.72;;;15.87;100.00
18858;BME280;9558;50.178;8.370;2023-08-06T12:56:39;97313.78;;;15.85;100.00
18858;BME280;9558;50.178;8.370;2023-08-06T12:59:25;97325.91;;;15.79;100.00
18858;BME280;9558;50.178;8.370;2023-08-06T13:02:12;97326.69;;;15.80;100.00
18858;BME280;9558;50.178;8.370;2023-08-06T13:05:00;97327.84;;;15.84;100.00
18858;BME280;9558;50.178;8.370;2023-08-06T13:07:50;97345.09;;;15.85;100.00
18858;BME280;9558;50.178;8.370;2023-08-06T13:10:37;97334.72;;;15.90;100.00
18858;BME280;9558;50.178;8.370;2023-08-06T13:13:24;97335.19;;;15.87;100.00
18858;BME280;9558;50.178;8.370;2023-08-06T13:16:13;97335.75;;;15.77;100.00
18858;BME280;9558;50.178;8.370;2023-08-06T13:19:00;97351.63;;;15.76;100.00
18858;BME280;9558;50.178;8.370;2023-08-06T13:22:09;97347.56;;;15.80;100.00
18858;BME280;9558;50.178;8.370;2023-08-06T13:24:56;97348.25;;;15.87;100.00
18858;BME280;9558;50.178;8.370;2023-08-06T13:27:42;97346.53;;;15.93;100.00
18858;BME280;9558;50.178;8.370;2023-08-06T13:30:31;97357.31;;;15.96;100.00
18858;BME280;9558;50.178;8.370;2023-08-06T13:33:18;97354.94;;;15.95;100.00
18858;BME280;9558;50.178;8.370;2023-08-06T13:36:05;97371.25;;;15.90;100.00
18858;BME280;9558;50.178;8.370;2023-08-06T13:38:53;97373.88;;;15.90;100.00
18858;BME280;9558;50.178;8.370;2023-08-06T13:41:40;97388.38;;;15.86;100.00
18858;BME280;9558;50.178;8.370;2023-08-06T13:44:26;97379.66;;;15.80;100.00
18858;BME280;9558;50.178;8.370;2023-08-06T13:47:14;97383.09;;;15.81;100.00
18858;BME280;9558;50.178;8.370;2023-08-06T13:50:01;97384.22;;;15.85;100.00
18858;BME280;9558;50.178;8.370;2023-08-06T13:52:48;97379.56;;;15.87;100.00
18858;BME280;9558;50.178;8.370;2023-08-06T13:55:37;97381.47;;;15.92;100.00
18858;BME280;9558;50.178;8.370;2023-08-06T13:58:23;97390.66;;;15.94;100.00
18858;BME280;9558;50.178;8.370;2023-08-06T14:01:11;97377.72;;;15.99;100.00
18858;BME280;9558;50.178;8.370;2023-08-06T14:03:58;97394.53;;;16.03;100.00
18858;BME280;9558;50.178;8.370;2023-08-06T14:06:45;97379.28;;;16.12;100.00
18858;BME280;9558;50.178;8.370;2023-08-06T14:09:32;97391.75;;;16.22;100.00
18858;BME280;9558;50.178;8.370;2023-08-06T14:12:21;97390.59;;;16.30;100.00
18858;BME280;9558;50.178;8.370;2023-08-06T14:15:08;97394.00;;;16.30;100.00
18858;BME280;9558;50.178;8.370;2023-08-06T14:17:55;97400.34;;;16.34;100.00
18858;BME280;9558;50.178;8.370;2023-08-06T14:20:42;97395.47;;;16.38;100.00
18858;BME280;9558;50.178;8.370;2023-08-06T14:23:29;97398.16;;;16.43;100.00
18858;BME280;9558;50.178;8.370;2023-08-06T14:26:16;97398.03;;;16.50;100.00
18858;BME280;9558;50.178;8.370;2023-08-06T14:29:04;97407.00;;;16.54;100.00
18858;BME280;9558;50.178;8.370;2023-08-06T14:31:51;97400.94;;;16.65;100.00
18858;BME280;9558;50.178;8.370;2023-08-06T14:34:38;97409.06;;;16.81;100.00
18858;BME280;9558;50.178;8.370;2023-08-06T14:37:25;97407.19;;;16.93;100.00
18858;BME280;9558;50.178;8.370;2023-08-06T14:40:11;97400.00;;;17.00;100.00
18858;BME280;9558;50.178;8.370;2023-08-06T14:42:58;97416.81;;;17.04;100.00
18858;BME280;9558;50.178;8.370;2023-08-06T14:45:46;97418.88;;;17.02;100.00
18858;BME280;9558;50.178;8.370;2023-08-06T14:48:33;97424.47;;;16.94;100.00